Time;durP1;ratioP1;P1;durP2;ratioP2;P2;SDS_P1;SDS_P2;PMS_P1;PMS_P2;Temp;Humidity;BMP_temperature;BMP_pressure;BME280_temperature;BME280_humidity;BME280_pressure;Samples;Min_cycle;Max_cycle;Signal;HPM_P1;HPM_P2
2024/04/18 00:01:21;;;;;;;8.18;5.15;;;;;;;4.88;100.00;101084.53;5410246;26;20006;-70
2024/04/18 00:03:47;;;;;;;7.32;5.07;;;;;;;4.87;100.00;101094.91;5408387;26;20357;-70
2024/04/18 00:06:13;;;;;;;7.88;5.20;;;;;;;4.83;100.00;101093.50;5439242;26;20000;-70
2024/04/18 00:08:39;;;;;;;7.88;4.93;;;;;;;4.78;100.00;101098.16;5438694;26;20006;-70
2024/04/18 00:11:23;;;;;;;7.95;5.47;;;;;;;4.75;100.00;101096.63;5405844;26;20014;-70
2024/04/18 00:13:50;;;;;;;12.85;5.32;;;;;;;4.76;100.00;101097.44;5439290;26;20017;-70
2024/04/18 00:16:34;;;;;;;8.15;4.88;;;;;;;4.79;100.00;101103.19;5411819;26;20349;-70
2024/04/18 00:19:18;;;;;;;7.30;4.85;;;;;;;4.77;100.00;101104.25;5409382;26;20019;-70
2024/04/18 00:21:58;;;;;;;9.23;5.00;;;;;;;4.72;100.00;101101.97;5379581;26;20035;-70
2024/04/18 00:24:29;;;;;;;8.65;5.45;;;;;;;4.68;100.00;101101.38;5437896;26;20015;-71
2024/04/18 00:26:56;;;;;;;7.65;5.03;;;;;;;4.65;100.00;101098.22;5438367;26;20007;-70
2024/04/18 00:29:31;;;;;;;6.22;4.25;;;;;;;4.63;100.00;101100.06;5409292;26;20007;-70
2024/04/18 00:32:07;;;;;;;10.55;4.63;;;;;;;4.59;100.00;101099.47;5405216;26;20018;-71
2024/04/18 00:34:33;;;;;;;6.47;4.53;;;;;;;4.56;100.00;101098.88;5439129;26;20083;-71
2024/04/18 00:36:59;;;;;;;8.27;5.22;;;;;;;4.66;100.00;101103.25;5410373;26;20006;-70
2024/04/18 00:39:25;;;;;;;7.70;4.80;;;;;;;4.68;100.00;101105.72;5437962;26;20710;-70
2024/04/18 00:42:00;;;;;;;6.93;4.18;;;;;;;4.65;100.00;101104.19;5405630;26;20021;-70
2024/04/18 00:44:29;;;;;;;5.85;4.10;;;;;;;4.65;100.00;101109.31;5439482;26;20007;-70
2024/04/18 00:47:13;;;;;;;7.78;4.25;;;;;;;4.64;100.00;101106.88;5433017;26;20030;-70
2024/04/18 00:49:40;;;;;;;8.23;4.05;;;;;;;4.65;100.00;101104.19;5376698;26;20011;-70
2024/04/18 00:52:08;;;;;;;8.73;4.38;;;;;;;4.62;100.00;101108.72;5400379;26;19999;-71
2024/04/18 00:54:53;;;;;;;6.43;4.28;;;;;;;4.61;100.00;101115.59;5432460;26;20032;-70
2024/04/18 00:57:33;;;;;;;7.10;3.88;;;;;;;4.61;100.00;101110.44;5435816;26;20018;-70
2024/04/18 01:00:00;;;;;;;6.60;4.20;;;;;;;4.58;100.00;101109.88;5425633;26;20019;-70
2024/04/18 01:02:30;;;;;;;6.85;3.90;;;;;;;4.52;100.00;101112.84;5432736;26;20015;-71
2024/04/18 01:05:14;;;;;;;4.97;3.88;;;;;;;4.46;100.00;101111.53;5430712;26;20017;-72
2024/04/18 01:07:41;;;;;;;9.93;4.90;;;;;;;4.47;100.00;101114.00;5431521;26;20050;-71
2024/04/18 01:10:19;;;;;;;6.75;4.28;;;;;;;4.42;100.00;101121.22;5429866;26;20011;-70
2024/04/18 01:13:00;;;;;;;8.07;4.60;;;;;;;4.36;100.00;101119.09;5437133;26;20017;-70
2024/04/18 01:15:45;;;;;;;7.80;4.95;;;;;;;4.32;100.00;101127.13;5427812;26;20076;-71
2024/04/18 01:18:11;;;;;;;8.18;4.40;;;;;;;4.27;100.00;101124.84;5426754;26;20046;-70
2024/04/18 01:20:37;;;;;;;9.27;5.15;;;;;;;4.24;100.00;101120.78;5428814;26;20053;-70
2024/04/18 01:23:03;;;;;;;7.80;5.07;;;;;;;4.25;100.00;101121.59;5432821;26;20018;-71
2024/04/18 01:25:41;;;;;;;9.10;5.72;;;;;;;4.20;100.00;101136.47;5400755;26;20023;-70
2024/04/18 01:28:07;;;;;;;7.45;4.70;;;;;;;4.21;100.00;101135.56;5409484;26;20868;-70
2024/04/18 01:30:53;;;;;;;9.38;5.93;;;;;;;4.17;100.00;101134.13;5438474;26;20007;-70
2024/04/18 01:33:19;;;;;;;9.68;5.78;;;;;;;4.13;100.00;101125.00;5439687;26;20021;-70
2024/04/18 01:35:45;;;;;;;9.07;5.53;;;;;;;4.08;100.00;101135.59;5379910;26;20100;-72
2024/04/18 01:38:20;;;;;;;12.60;5.45;;;;;;;4.08;100.00;101136.41;5408554;26;20035;-70
2024/04/18 01:40:46;;;;;;;8.20;5.45;;;;;;;4.07;100.00;101139.91;5437787;26;20012;-71
2024/04/18 01:43:31;;;;;;;10.65;5.63;;;;;;;4.07;100.00;101136.53;5438029;26;20080;-70
2024/04/18 01:45:57;;;;;;;8.95;6.05;;;;;;;4.04;100.00;101145.22;5436150;26;20003;-71
2024/04/18 01:48:22;;;;;;;10.07;6.13;;;;;;;4.04;100.00;101145.22;5383088;26;20011;-70
2024/04/18 01:51:07;;;;;;;10.05;6.30;;;;;;;4.02;100.00;101148.84;5437119;26;20461;-71
2024/04/18 01:53:33;;;;;;;10.32;6.35;;;;;;;4.00;100.00;101148.94;5437102;26;20016;-71
2024/04/18 01:55:59;;;;;;;12.68;7.30;;;;;;;4.01;100.00;101152.31;5442032;26;20053;-70
2024/04/18 01:58:55;;;;;;;12.80;7.10;;;;;;;4.00;100.00;101148.13;5419103;26;20006;-70
2024/04/18 02:01:24;;;;;;;13.10;7.53;;;;;;;4.04;100.00;101158.06;5436536;26;19999;-70
2024/04/18 02:03:50;;;;;;;12.90;7.38;;;;;;;3.98;100.00;101162.81;5443896;26;20011;-71
2024/04/18 02:06:16;;;;;;;11.65;7.10;;;;;;;3.92;100.00;101164.03;5401829;26;20003;-70
2024/04/18 02:08:48;;;;;;;13.77;7.50;;;;;;;3.89;100.00;101169.38;5439192;26;20523;-71
2024/04/18 02:11:40;;;;;;;13.70;7.78;;;;;;;3.88;100.00;101166.00;5442341;26;20925;-71
2024/04/18 02:14:09;;;;;;;11.77;6.97;;;;;;;3.85;100.00;101161.06;5440121;26;20477;-71
2024/04/18 02:16:35;;;;;;;12.60;7.10;;;;;;;3.83;100.00;101160.34;5414107;26;20048;-70
2024/04/18 02:19:20;;;;;;;12.13;7.57;;;;;;;3.78;100.00;101161.59;5415210;26;20009;-70
2024/04/18 02:21:58;;;;;;;14.27;7.78;;;;;;;3.73;100.00;101169.59;5435258;26;20018;-70
2024/04/18 02:25:02;;;;;;;14.15;7.57;;;;;;;3.71;100.00;101168.84;5410474;26;20023;-70
2024/04/18 02:27:28;;;;;;;10.52;6.53;;;;;;;3.70;100.00;101170.59;5405736;26;20711;-70
2024/04/18 02:29:54;;;;;;;14.63;8.57;;;;;;;3.72;100.00;101170.50;5411084;26;20007;-71
2024/04/18 02:32:39;;;;;;;13.60;7.90;;;;;;;3.72;100.00;101172.25;5436687;26;20350;-70
2024/04/18 02:35:13;;;;;;;13.50;7.97;;;;;;;3.71;100.00;101171.41;5438940;26;20046;-71
2024/04/18 02:37:39;;;;;;;12.90;7.32;;;;;;;3.69;100.00;101179.25;5408452;26;20018;-70
2024/04/18 02:40:05;;;;;;;11.13;6.90;;;;;;;3.68;100.00;101179.34;5439740;26;20015;-70
2024/04/18 02:42:51;;;;;;;13.50;7.45;;;;;;;3.66;100.00;101189.69;5436162;26;20025;-70
2024/04/18 02:45:30;;;;;;;12.73;7.63;;;;;;;3.64;100.00;101188.16;5406397;26;20018;-72
2024/04/18 02:48:15;;;;;;;13.32;7.38;;;;;;;3.61;100.00;101188.34;5439896;26;20052;-70
2024/04/18 02:50:41;;;;;;;12.48;6.78;;;;;;;3.59;100.00;101187.63;5436989;26;20004;-71
2024/04/18 02:53:07;;;;;;;13.02;7.28;;;;;;;3.56;100.00;101196.34;5437956;26;20030;-70
2024/04/18 02:55:33;;;;;;;12.48;6.85;;;;;;;3.53;100.00;101196.56;5434523;26;19999;-70
2024/04/18 02:57:59;;;;;;;13.05;7.13;;;;;;;3.49;100.00;101195.94;5437085;26;20579;-70
2024/04/18 03:00:25;;;;;;;10.52;6.90;;;;;;;3.48;100.00;101206.28;5406018;26;20228;-70
2024/04/18 03:03:09;;;;;;;11.23;6.40;;;;;;;3.46;100.00;101211.50;5411165;26;20019;-71
2024/04/18 03:06:02;;;;;;;12.52;6.60;;;;;;;3.45;100.00;101216.75;5431958;26;20008;-70
2024/04/18 03:08:28;;;;;;;14.55;6.13;;;;;;;3.43;100.00;101216.84;5441412;26;20403;-70
2024/04/18 03:11:14;;;;;;;13.15;6.65;;;;;;;3.45;100.00;101227.00;5435988;26;20009;-70
2024/04/18 03:14:00;;;;;;;11.82;6.50;;;;;;;3.44;100.00;101225.34;5408048;26;20737;-71
2024/04/18 03:16:29;;;;;;;9.70;6.20;;;;;;;3.44;100.00;101220.22;5433857;26;20038;-71
2024/04/18 03:19:15;;;;;;;9.68;5.82;;;;;;;3.47;100.00;101231.09;5439865;26;20357;-71
2024/04/18 03:22:01;;;;;;;11.32;6.88;;;;;;;3.45;100.00;101230.38;5440047;26;20010;-70
2024/04/18 03:24:47;;;;;;;14.52;6.40;;;;;;;3.47;100.00;101230.28;5408859;26;20029;-71
2024/04/18 03:27:25;;;;;;;10.70;6.30;;;;;;;3.50;100.00;101230.06;5405248;26;20708;-71
2024/04/18 03:29:51;;;;;;;9.65;5.97;;;;;;;3.56;100.00;101236.56;5440351;26;20007;-70
2024/04/18 03:32:36;;;;;;;13.20;5.90;;;;;;;3.49;100.00;101239.53;5408798;26;20022;-71
2024/04/18 03:35:03;;;;;;;10.63;5.65;;;;;;;3.46;100.00;101242.28;5436686;26;20456;-70
2024/04/18 03:37:29;;;;;;;12.13;6.32;;;;;;;3.49;100.00;101241.28;5438820;26;20053;-70
2024/04/18 03:39:58;;;;;;;14.07;6.75;;;;;;;3.48;100.00;101237.06;5406058;26;20007;-71
2024/04/18 03:42:23;;;;;;;11.30;6.43;;;;;;;3.51;100.00;101236.88;5409471;26;20013;-71
2024/04/18 03:44:57;;;;;;;11.27;6.80;;;;;;;3.53;100.00;101245.28;5408609;26;20368;-71
2024/04/18 03:47:23;;;;;;;9.75;6.20;;;;;;;3.50;100.00;101253.16;5444126;26;20043;-71
2024/04/18 03:50:07;;;;;;;11.95;6.70;;;;;;;3.49;100.00;101248.97;5428367;26;19999;-71
2024/04/18 03:52:37;;;;;;;13.25;5.93;;;;;;;3.48;100.00;101258.41;5411731;26;20015;-71
2024/04/18 03:55:22;;;;;;;11.90;5.95;;;;;;;3.48;100.00;101255.84;5416153;26;20084;-71
2024/04/18 03:57:51;;;;;;;13.40;6.88;;;;;;;3.49;100.00;101261.78;5442445;26;20007;-71
2024/04/18 04:00:37;;;;;;;11.57;6.40;;;;;;;3.56;100.00;101262.19;5433620;26;20457;-71
2024/04/18 04:03:03;;;;;;;15.07;7.45;;;;;;;3.60;100.00;101276.47;5404967;26;20079;-70
2024/04/18 04:05:29;;;;;;;13.48;7.15;;;;;;;3.61;100.00;101273.78;5409602;26;20411;-72
2024/04/18 04:07:55;;;;;;;12.27;7.15;;;;;;;3.61;100.00;101276.38;5441136;26;20006;-71
2024/04/18 04:10:42;;;;;;;11.35;6.88;;;;;;;3.69;100.00;101286.97;5443091;26;20015;-71
2024/04/18 04:13:09;;;;;;;12.10;6.80;;;;;;;3.69;100.00;101279.28;5439730;26;20011;-71
2024/04/18 04:15:41;;;;;;;13.68;6.93;;;;;;;3.67;100.00;101275.16;5407833;26;20006;-71
2024/04/18 04:18:07;;;;;;;11.75;6.22;;;;;;;3.65;100.00;101279.56;5438423;26;20513;-71
2024/04/18 04:20:43;;;;;;;11.48;6.95;;;;;;;3.62;100.00;101277.22;5410574;26;20007;-71
2024/04/18 04:23:09;;;;;;;15.57;7.82;;;;;;;3.60;100.00;101285.00;5407805;26;20043;-71
2024/04/18 04:25:54;;;;;;;10.77;5.97;;;;;;;3.54;100.00;101290.50;5408852;26;20472;-71
2024/04/18 04:28:20;;;;;;;15.98;6.90;;;;;;;3.52;100.00;101297.47;5436883;26;20011;-71
2024/04/18 04:30:46;;;;;;;12.85;6.40;;;;;;;3.58;100.00;101301.38;5435486;26;20007;-71
2024/04/18 04:33:12;;;;;;;15.35;7.93;;;;;;;3.56;100.00;101305.78;5410462;26;20022;-71
2024/04/18 04:35:38;;;;;;;12.75;6.97;;;;;;;3.54;100.00;101307.63;5431647;26;20014;-71
2024/04/18 04:38:03;;;;;;;16.90;7.75;;;;;;;3.57;100.00;101315.16;5440507;26;20011;-71
2024/04/18 04:40:33;;;;;;;14.45;6.90;;;;;;;3.67;100.00;101323.88;5435631;26;20113;-71
2024/04/18 04:42:59;;;;;;;13.65;7.00;;;;;;;3.68;100.00;101333.22;5436649;26;20015;-71
2024/04/18 04:45:25;;;;;;;15.77;7.65;;;;;;;3.70;100.00;101336.53;5438960;26;20011;-71
2024/04/18 04:48:06;;;;;;;16.70;8.15;;;;;;;3.79;100.00;101335.13;5415684;26;20006;-71
2024/04/18 04:50:32;;;;;;;12.82;7.05;;;;;;;3.80;100.00;101336.75;5440506;26;20006;-71
2024/04/18 04:53:11;;;;;;;11.88;7.65;;;;;;;3.87;100.00;101336.25;5412878;26;20003;-71
2024/04/18 04:55:57;;;;;;;20.17;7.55;;;;;;;3.94;100.00;101336.69;5414403;26;19999;-71
2024/04/18 04:58:23;;;;;;;14.02;7.10;;;;;;;4.05;100.00;101341.09;5436639;26;20020;-71
2024/04/18 05:00:49;;;;;;;13.05;6.97;;;;;;;3.98;100.00;101345.81;5439602;26;20006;-70
2024/04/18 05:03:35;;;;;;;11.85;7.25;;;;;;;4.00;100.00;101343.97;5434215;26;20024;-71
2024/04/18 05:06:20;;;;;;;12.82;7.80;;;;;;;3.98;100.00;101347.56;5441635;26;20025;-71
2024/04/18 05:09:06;;;;;;;13.30;7.13;;;;;;;3.93;100.00;101352.19;5428342;26;20888;-71
2024/04/18 05:11:32;;;;;;;11.13;6.68;;;;;;;3.90;100.00;101360.91;5401807;26;20011;-71
2024/04/18 05:13:58;;;;;;;13.27;6.90;;;;;;;4.01;100.00;101370.47;5403576;26;20003;-71
2024/04/18 05:16:44;;;;;;;19.70;7.38;;;;;;;4.13;100.00;101372.25;5434626;26;20006;-71
2024/04/18 05:19:10;;;;;;;13.93;7.35;;;;;;;4.17;100.00;101380.56;5409996;26;20025;-71
2024/04/18 05:21:37;;;;;;;15.50;7.30;;;;;;;4.33;100.00;101386.31;5395288;26;20466;-71
2024/04/18 05:24:21;;;;;;;16.30;6.43;;;;;;;4.43;100.00;101376.28;5437065;26;20060;-72
2024/04/18 05:26:47;;;;;;;11.82;5.75;;;;;;;4.49;100.00;101379.25;5443104;26;20015;-71
2024/04/18 05:31:59;;;;;;;12.05;5.75;;;;;;;4.51;100.00;101398.88;5439313;26;19998;-71
2024/04/18 05:34:28;;;;;;;17.67;6.45;;;;;;;4.44;100.00;101404.41;5440915;26;22560;-71
2024/04/18 05:36:54;;;;;;;11.18;4.90;;;;;;;4.40;100.00;101412.44;5379513;26;20361;-71
2024/04/18 05:39:20;;;;;;;17.42;6.75;;;;;;;4.54;100.00;101416.66;5410868;26;20003;-71
2024/04/18 05:41:46;;;;;;;16.50;5.55;;;;;;;4.41;100.00;101424.38;5438045;26;20358;-71
2024/04/18 05:44:42;;;;;;;11.95;5.47;;;;;;;4.48;100.00;101423.84;5419444;26;20026;-71
2024/04/18 05:47:09;;;;;;;10.75;5.25;;;;;;;4.49;100.00;101422.91;5440573;26;20003;-71
2024/04/18 05:49:35;;;;;;;10.15;5.43;;;;;;;4.54;100.00;101430.34;5443785;26;20083;-71
2024/04/18 05:52:01;;;;;;;10.23;5.53;;;;;;;4.63;100.00;101441.72;5407091;26;20380;-71
2024/04/18 05:54:31;;;;;;;9.13;5.22;;;;;;;4.68;100.00;101432.78;5410567;26;20543;-71
2024/04/18 05:57:03;;;;;;;9.30;5.22;;;;;;;4.66;100.00;101433.84;5445625;26;20022;-71
2024/04/18 05:59:48;;;;;;;13.73;4.97;;;;;;;4.90;100.00;101431.38;5440239;26;20021;-71
2024/04/18 06:02:14;;;;;;;13.68;5.25;;;;;;;5.10;100.00;101435.16;5449520;26;20011;-71
2024/04/18 06:04:42;;;;;;;10.80;5.00;;;;;;;5.39;100.00;101440.88;5441443;26;23988;-71
2024/04/18 06:07:26;;;;;;;10.07;4.60;;;;;;;5.34;100.00;101440.34;5443694;26;20015;-71
2024/04/18 06:09:52;;;;;;;12.27;4.80;;;;;;;5.35;100.00;101446.31;5443700;26;19998;-71
2024/04/18 06:12:18;;;;;;;10.88;4.00;;;;;;;5.40;100.00;101452.78;5447061;26;20011;-71
2024/04/18 06:14:44;;;;;;;11.60;4.50;;;;;;;5.36;100.00;101455.69;5443198;26;20005;-71
2024/04/18 06:17:10;;;;;;;7.30;4.43;;;;;;;5.29;100.00;101457.03;5416139;26;20010;-71
2024/04/18 06:19:52;;;;;;;7.72;3.67;;;;;;;5.23;100.00;101456.50;5411978;26;20007;-71
2024/04/18 06:22:29;;;;;;;10.75;4.30;;;;;;;5.29;100.00;101469.88;5436390;26;20158;-71
2024/04/18 06:25:15;;;;;;;11.02;3.97;;;;;;;5.35;100.00;101474.59;5441530;26;20014;-71
2024/04/18 06:27:41;;;;;;;8.48;3.70;;;;;;;5.24;100.00;101481.31;5382123;26;20003;-71
2024/04/18 06:30:07;;;;;;;9.15;3.72;;;;;;;5.37;100.00;101471.03;5409792;26;20026;-71
2024/04/18 06:32:33;;;;;;;12.90;3.80;;;;;;;5.32;100.00;101478.22;5433643;26;20004;-71
2024/04/18 06:34:59;;;;;;;7.93;3.53;;;;;;;5.29;100.00;101486.13;5403717;26;20507;-71
2024/04/18 06:37:25;;;;;;;10.45;3.45;;;;;;;5.31;100.00;101489.41;5413287;26;20021;-70
2024/04/18 06:39:52;;;;;;;7.28;4.03;;;;;;;5.30;100.00;101489.53;5443375;26;20087;-71
2024/04/18 06:42:17;;;;;;;8.38;3.17;;;;;;;5.30;100.00;101486.97;5443245;26;20011;-71
2024/04/18 06:44:43;;;;;;;7.65;3.33;;;;;;;5.41;100.00;101497.34;5432879;26;20022;-71
2024/04/18 06:47:09;;;;;;;5.65;3.35;;;;;;;5.52;100.00;101496.59;5440520;26;20015;-70
2024/04/18 06:49:35;;;;;;;10.25;3.70;;;;;;;5.81;100.00;101503.13;5443968;26;20026;-70
2024/04/18 06:52:02;;;;;;;31.08;9.75;;;;;;;6.07;100.00;101505.63;5440548;26;20021;-71
2024/04/18 06:54:28;;;;;;;9.93;3.30;;;;;;;6.22;100.00;101498.56;5413417;26;20003;-71
2024/04/18 06:56:54;;;;;;;16.73;3.10;;;;;;;6.41;100.00;101501.44;5444947;26;20017;-72
2024/04/18 06:59:20;;;;;;;10.15;2.90;;;;;;;6.82;100.00;101505.31;5442802;26;20025;-71
2024/04/18 07:01:46;;;;;;;7.28;2.50;;;;;;;7.19;95.77;101502.53;5386197;26;20003;-70
2024/04/18 07:04:12;;;;;;;6.00;2.80;;;;;;;7.62;92.43;101508.75;5442495;26;20060;-71
2024/04/18 07:06:59;;;;;;;6.38;2.40;;;;;;;8.47;85.36;101509.81;5440965;26;20007;-72
2024/04/18 07:09:36;;;;;;;8.00;2.78;;;;;;;9.42;80.52;101504.50;5443569;26;20013;-72
2024/04/18 07:12:16;;;;;;;4.72;1.70;;;;;;;10.05;75.29;101503.38;5446031;26;20365;-71
2024/04/18 07:14:42;;;;;;;8.18;2.13;;;;;;;10.16;70.85;101511.03;5437631;26;20088;-71
2024/04/18 07:17:11;;;;;;;6.85;2.13;;;;;;;10.54;69.25;101506.81;5443971;26;20481;-71
2024/04/18 07:19:37;;;;;;;8.57;2.20;;;;;;;10.85;66.40;101499.66;5435415;26;20011;-71
2024/04/18 07:22:03;;;;;;;8.02;1.60;;;;;;;11.44;66.21;101505.44;5441213;26;20465;-72
2024/04/18 07:24:49;;;;;;;7.78;2.05;;;;;;;11.33;63.18;101518.63;5409109;26;20092;-71
2024/04/18 07:27:15;;;;;;;10.05;2.50;;;;;;;11.39;61.85;101518.03;5444728;26;20458;-71
2024/04/18 07:29:41;;;;;;;8.60;2.10;;;;;;;11.68;62.00;101510.13;5443981;26;20003;-72
2024/04/18 07:32:07;;;;;;;6.78;1.73;;;;;;;11.87;61.12;101514.38;5407473;26;20450;-71
2024/04/18 07:34:34;;;;;;;6.50;1.60;;;;;;;12.44;61.41;101521.88;5414002;26;20003;-72
2024/04/18 07:37:08;;;;;;;8.40;1.83;;;;;;;12.55;59.69;101528.66;5408755;26;20503;-71
2024/04/18 07:39:34;;;;;;;6.20;1.73;;;;;;;12.33;59.69;101527.31;5405462;26;20019;-71
2024/04/18 07:42:00;;;;;;;6.57;2.95;;;;;;;12.50;57.55;101528.28;5433887;26;20339;-72
2024/04/18 07:44:26;;;;;;;10.45;1.65;;;;;;;12.74;56.47;101522.44;5405258;26;20014;-72
2024/04/18 07:46:53;;;;;;;8.23;1.73;;;;;;;12.92;55.83;101529.38;5414336;26;20002;-72
2024/04/18 07:49:19;;;;;;;8.48;1.60;;;;;;;12.84;55.59;101530.13;5442888;26;20468;-71
2024/04/18 07:51:45;;;;;;;5.15;1.48;;;;;;;12.61;54.85;101529.81;5410452;26;20015;-72
2024/04/18 07:54:11;;;;;;;9.95;2.15;;;;;;;13.09;56.85;101535.50;5406925;26;20717;-72
2024/04/18 07:56:37;;;;;;;5.15;1.48;;;;;;;13.10;54.53;101539.75;5413261;26;20659;-72
2024/04/18 07:59:03;;;;;;;4.55;1.55;;;;;;;13.41;55.98;101538.31;5379162;26;20002;-72
2024/04/18 08:01:29;;;;;;;8.20;1.75;;;;;;;13.60;52.10;101544.25;5411898;26;20037;-72
2024/04/18 08:03:56;;;;;;;12.98;2.13;;;;;;;12.74;52.88;101556.25;5436767;26;21086;-73
2024/04/18 08:06:22;;;;;;;10.30;2.35;;;;;;;12.55;53.11;101551.25;5447074;26;20677;-72
2024/04/18 08:08:48;;;;;;;9.18;1.38;;;;;;;13.22;53.68;101554.13;5413194;26;20080;-72
2024/04/18 08:11:14;;;;;;;9.18;2.25;;;;;;;13.31;53.48;101561.03;5439023;26;21357;-72
2024/04/18 08:13:40;;;;;;;6.22;2.13;;;;;;;12.97;52.77;101571.38;5438088;26;20006;-70
2024/04/18 08:16:06;;;;;;;7.40;1.35;;;;;;;13.41;51.50;101572.16;5412802;26;20026;-71
2024/04/18 08:18:33;;;;;;;9.63;2.03;;;;;;;13.42;51.16;101568.56;5441439;26;20019;-72
2024/04/18 08:20:59;;;;;;;4.18;1.40;;;;;;;13.41;52.23;101569.56;5447361;26;19995;-72
2024/04/18 08:23:26;;;;;;;7.03;1.70;;;;;;;13.29;52.79;101580.38;5442109;26;20512;-72
2024/04/18 08:25:52;;;;;;;6.95;1.67;;;;;;;13.44;52.26;101584.84;5436647;26;20006;-71
2024/04/18 08:28:18;;;;;;;4.20;1.30;;;;;;;14.05;53.12;101581.31;5442670;26;20025;-71
2024/04/18 08:30:45;;;;;;;3.05;1.23;;;;;;;14.43;50.61;101577.31;5411047;26;20027;-72
2024/04/18 08:33:11;;;;;;;7.88;1.13;;;;;;;14.57;49.87;101575.88;5406588;26;20066;-72
2024/04/18 08:35:39;;;;;;;5.95;1.77;;;;;;;14.74;49.58;101580.09;5412343;26;19998;-71
2024/04/18 08:38:08;;;;;;;5.50;1.23;;;;;;;14.87;50.56;101582.22;5442877;26;20014;-72
2024/04/18 08:40:34;;;;;;;5.45;1.73;;;;;;;14.84;48.69;101579.91;5442388;26;20501;-72
2024/04/18 08:43:00;;;;;;;5.75;1.60;;;;;;;14.12;48.34;101582.31;5406068;26;20019;-72
2024/04/18 08:45:26;;;;;;;5.55;1.30;;;;;;;14.41;49.09;101579.28;5443917;26;20014;-72
2024/04/18 08:47:53;;;;;;;4.40;1.33;;;;;;;14.50;48.32;101591.31;5408921;26;20076;-72
2024/04/18 08:50:20;;;;;;;4.40;1.48;;;;;;;14.58;48.45;101587.97;5411637;26;20007;-72
2024/04/18 08:52:46;;;;;;;5.30;1.15;;;;;;;14.15;50.69;101592.44;5434006;26;19999;-72
2024/04/18 08:55:12;;;;;;;5.25;1.10;;;;;;;13.42;52.22;101597.22;5434142;26;20012;-71
2024/04/18 08:57:49;;;;;;;5.45;1.40;;;;;;;12.96;51.20;101590.56;5410317;26;20203;-72
2024/04/18 09:00:15;;;;;;;3.95;1.10;;;;;;;13.36;51.83;101602.25;5411482;26;20042;-72
2024/04/18 09:02:42;;;;;;;5.55;1.15;;;;;;;14.13;50.21;101595.22;5410843;26;20011;-71
2024/04/18 09:05:08;;;;;;;5.78;0.98;;;;;;;14.33;48.81;101590.50;5436095;26;20002;-71
2024/04/18 09:07:34;;;;;;;4.28;1.10;;;;;;;14.49;48.63;101597.53;5437184;26;20470;-72
2024/04/18 09:10:07;;;;;;;6.75;1.00;;;;;;;14.76;47.05;101600.81;5431146;26;20022;-71
2024/04/18 09:12:34;;;;;;;;;;;;;;;14.48;46.76;101601.09;5439800;26;20021;-71
2024/04/18 09:15:00;;;;;;;1.60;0.70;;;;;;;14.31;46.16;101599.47;5404418;26;20472;-72
2024/04/18 09:17:27;;;;;;;3.08;0.90;;;;;;;13.97;46.39;101606.41;5434872;26;20003;-72
2024/04/18 09:19:54;;;;;;;4.47;0.90;;;;;;;14.08;48.15;101607.09;5432464;26;20473;-71
2024/04/18 09:22:20;;;;;;;4.00;1.05;;;;;;;14.48;48.23;101606.31;5437875;26;20010;-72
2024/04/18 09:24:47;;;;;;;5.07;0.77;;;;;;;15.06;49.79;101606.34;5431498;26;20007;-72
2024/04/18 09:27:14;;;;;;;4.80;0.80;;;;;;;13.85;48.56;101609.47;5442898;26;20010;-72
2024/04/18 09:29:40;;;;;;;5.63;0.73;;;;;;;13.87;50.00;101603.13;5410001;26;20023;-71
2024/04/18 09:32:07;;;;;;;5.07;0.90;;;;;;;13.66;49.81;101606.16;5431546;26;20366;-72
2024/04/18 09:34:35;;;;;;;3.95;1.10;;;;;;;12.96;51.13;101604.41;5432214;26;20018;-71
2024/04/18 09:37:05;;;;;;;3.67;0.73;;;;;;;12.68;51.89;101614.13;5436440;26;20007;-72
2024/04/18 09:39:33;;;;;;;5.00;0.80;;;;;;;12.84;51.44;101609.03;5406267;26;20027;-72
2024/04/18 09:42:12;;;;;;;2.70;0.93;;;;;;;13.17;49.43;101613.69;5437686;26;20461;-71
2024/04/18 09:44:43;;;;;;;2.95;0.80;;;;;;;12.92;53.50;101623.91;5407800;26;20018;-72
2024/04/18 09:47:10;;;;;;;6.85;1.00;;;;;;;12.81;49.54;101622.38;5404730;26;20019;-72
2024/04/18 09:49:38;;;;;;;7.45;1.00;;;;;;;13.57;51.22;101620.09;5430420;26;20003;-71
2024/04/18 09:52:06;;;;;;;3.63;0.80;;;;;;;13.23;50.00;101621.66;5438393;26;20017;-71
2024/04/18 09:54:32;;;;;;;3.60;0.85;;;;;;;12.53;49.10;101615.63;5396559;26;20007;-71
2024/04/18 09:56:59;;;;;;;4.47;0.60;;;;;;;13.05;49.27;101619.13;5402315;26;20150;-71
2024/04/18 09:59:26;;;;;;;5.53;1.02;;;;;;;13.27;49.32;101611.78;5409221;26;20015;-71
2024/04/18 10:01:54;;;;;;;3.42;0.70;;;;;;;13.83;51.88;101613.03;5407384;26;20015;-72
2024/04/18 10:04:21;;;;;;;6.60;0.70;;;;;;;14.36;47.32;101613.66;5416519;26;20079;-71
2024/04/18 10:06:49;;;;;;;2.95;0.80;;;;;;;14.39;44.49;101613.34;5444893;26;20047;-71
2024/04/18 10:09:20;;;;;;;3.17;0.70;;;;;;;13.85;46.32;101619.91;5404801;26;20038;-71
2024/04/18 10:11:47;;;;;;;4.80;0.80;;;;;;;13.54;47.93;101615.19;5438538;26;20377;-72
2024/04/18 10:14:13;;;;;;;3.75;0.82;;;;;;;13.51;48.57;101621.53;5407528;26;20084;-71
2024/04/18 10:16:50;;;;;;;7.57;1.15;;;;;;;13.05;50.81;101613.09;5412629;26;20002;-72
2024/04/18 10:19:23;;;;;;;5.00;0.80;;;;;;;12.78;51.46;101617.44;5434823;26;19998;-71
2024/04/18 10:21:56;;;;;;;4.90;1.02;;;;;;;12.56;53.09;101625.72;5441694;26;20079;-71
2024/04/18 10:24:23;;;;;;;2.67;0.80;;;;;;;12.32;51.61;101619.31;5441767;26;20013;-71
2024/04/18 10:26:59;;;;;;;4.43;0.70;;;;;;;12.46;49.76;101625.78;5432414;26;20008;-71
2024/04/18 10:29:28;;;;;;;3.63;0.90;;;;;;;12.87;49.67;101617.53;5410307;26;20006;-72
2024/04/18 10:31:57;;;;;;;4.53;0.73;;;;;;;13.30;50.30;101621.06;5384430;26;20007;-72
2024/04/18 10:34:26;;;;;;;4.70;0.90;;;;;;;13.25;48.87;101629.34;5406744;26;20134;-71
2024/04/18 10:36:54;;;;;;;10.07;0.93;;;;;;;13.16;47.24;101615.44;5412685;26;20015;-72
2024/04/18 10:39:30;;;;;;;6.78;0.80;;;;;;;13.37;47.89;101622.09;5445164;26;20473;-72
2024/04/18 10:42:07;;;;;;;5.28;0.80;;;;;;;13.59;47.59;101624.19;5412445;26;20014;-72
2024/04/18 10:44:33;;;;;;;6.68;1.02;;;;;;;13.70;49.72;101636.13;5411786;26;20099;-72
2024/04/18 10:47:00;;;;;;;4.22;1.13;;;;;;;13.10;48.04;101628.25;5444387;26;20006;-72
2024/04/18 10:49:26;;;;;;;5.10;0.70;;;;;;;12.89;48.82;101633.81;5437704;26;20465;-72
2024/04/18 10:51:53;;;;;;;2.25;0.75;;;;;;;12.84;50.39;101634.25;5411042;26;20490;-72
2024/04/18 10:54:19;;;;;;;4.75;0.93;;;;;;;13.13;48.12;101635.75;5445405;26;20014;-71
2024/04/18 10:56:45;;;;;;;4.82;0.88;;;;;;;13.10;48.24;101634.28;5407812;26;20022;-72
2024/04/18 10:59:12;;;;;;;2.65;0.82;;;;;;;13.17;47.63;101637.91;5437481;26;20011;-72
2024/04/18 11:01:38;;;;;;;3.55;1.08;;;;;;;13.44;45.66;101636.97;5414472;26;20002;-72
2024/04/18 11:04:07;;;;;;;2.03;0.60;;;;;;;13.13;48.06;101628.78;5412628;26;20092;-72
2024/04/18 11:06:36;;;;;;;3.60;0.80;;;;;;;12.93;49.63;101635.94;5412710;26;20022;-72
2024/04/18 11:09:03;;;;;;;2.28;0.75;;;;;;;12.76;50.98;101629.78;5437133;26;20017;-72
2024/04/18 11:11:32;;;;;;;4.88;1.00;;;;;;;12.51;50.30;101633.97;5434093;26;20353;-71
2024/04/18 11:13:59;;;;;;;3.35;1.10;;;;;;;12.80;50.61;101631.13;5413005;26;20077;-71
2024/04/18 11:16:25;;;;;;;3.72;0.90;;;;;;;13.22;49.66;101627.88;5436550;26;20083;-72
2024/04/18 11:18:53;;;;;;;3.42;0.80;;;;;;;13.35;47.30;101634.47;5409977;26;20671;-71
2024/04/18 11:21:19;;;;;;;3.22;0.50;;;;;;;13.16;49.56;101630.25;5440540;26;20006;-72
2024/04/18 11:23:44;;;;;;;4.10;0.85;;;;;;;13.06;49.20;101635.56;5405316;26;20381;-72
2024/04/18 11:26:11;;;;;;;0.90;0.60;;;;;;;12.94;49.83;101635.00;5435085;26;20026;-72
2024/04/18 11:28:37;;;;;;;3.40;0.88;;;;;;;13.00;51.79;101639.59;5381889;26;20072;-72
2024/04/18 11:31:03;;;;;;;5.22;1.00;;;;;;;12.75;52.64;101632.53;5443437;26;19999;-72
2024/04/18 11:33:29;;;;;;;4.88;0.88;;;;;;;12.54;51.47;101633.66;5412896;26;20032;-71
2024/04/18 11:35:55;;;;;;;6.10;1.45;;;;;;;12.90;51.19;101640.63;5440375;26;20035;-72
2024/04/18 11:38:21;;;;;;;1.58;0.65;;;;;;;13.18;51.87;101631.72;5442662;26;20014;-72
2024/04/18 11:40:47;;;;;;;3.70;0.90;;;;;;;13.54;50.84;101629.06;5442020;26;20007;-72